sensor_id;sensor_type;location;lat;lon;timestamp;temperature;humidity
69464;DHT22;56665;41.106;16.688;2023-04-08T00:01:16;9.86;69.88
69464;DHT22;56665;41.106;16.688;2023-04-08T00:04:19;9.88;69.97
69464;DHT22;56665;41.106;16.688;2023-04-08T00:07:24;9.94;70.05
69464;DHT22;56665;41.106;16.688;2023-04-08T00:10:28;9.87;70.08
69464;DHT22;56665;41.106;16.688;2023-04-08T00:13:32;9.87;70.20
69464;DHT22;56665;41.106;16.688;2023-04-08T00:16:39;9.83;70.32
69464;DHT22;56665;41.106;16.688;2023-04-08T00:19:43;9.86;70.28
69464;DHT22;56665;41.106;16.688;2023-04-08T00:22:47;9.80;70.74
69464;DHT22;56665;41.106;16.688;2023-04-08T00:25:52;9.80;70.51
69464;DHT22;56665;41.106;16.688;2023-04-08T00:28:55;9.81;70.41
69464;DHT22;56665;41.106;16.688;2023-04-08T00:32:00;9.81;70.25
69464;DHT22;56665;41.106;16.688;2023-04-08T00:35:04;9.80;70.28
69464;DHT22;56665;41.106;16.688;2023-04-08T00:38:11;9.74;70.34
69464;DHT22;56665;41.106;16.688;2023-04-08T00:41:16;9.77;70.29
69464;DHT22;56665;41.106;16.688;2023-04-08T00:44:19;9.75;70.19
69464;DHT22;56665;41.106;16.688;2023-04-08T00:47:23;9.77;70.58
69464;DHT22;56665;41.106;16.688;2023-04-08T00:50:27;9.77;70.26
69464;DHT22;56665;41.106;16.688;2023-04-08T00:53:31;9.71;69.88
69464;DHT22;56665;41.106;16.688;2023-04-08T00:56:36;9.67;70.23
69464;DHT22;56665;41.106;16.688;2023-04-08T00:59:41;9.67;70.23
69464;DHT22;56665;41.106;16.688;2023-04-08T01:05:55;9.64;70.40
69464;DHT22;56665;41.106;16.688;2023-04-08T01:09:04;9.63;70.45
69464;DHT22;56665;41.106;16.688;2023-04-08T01:12:09;9.60;70.46
69464;DHT22;56665;41.106;16.688;2023-04-08T01:15:14;9.60;70.54
69464;DHT22;56665;41.106;16.688;2023-04-08T01:18:21;9.60;70.61
69464;DHT22;56665;41.106;16.688;2023-04-08T01:21:25;9.60;70.55
69464;DHT22;56665;41.106;16.688;2023-04-08T01:24:35;9.58;70.53
69464;DHT22;56665;41.106;16.688;2023-04-08T01:27:39;9.56;70.60
69464;DHT22;56665;41.106;16.688;2023-04-08T01:30:44;9.50;70.80
69464;DHT22;56665;41.106;16.688;2023-04-08T01:33:51;9.40;70.79
69464;DHT22;56665;41.106;16.688;2023-04-08T01:36:57;9.30;71.28
69464;DHT22;56665;41.106;16.688;2023-04-08T01:40:01;9.29;71.66
69464;DHT22;56665;41.106;16.688;2023-04-08T01:43:07;9.28;71.57
69464;DHT22;56665;41.106;16.688;2023-04-08T01:46:14;9.33;71.43
69464;DHT22;56665;41.106;16.688;2023-04-08T01:49:19;9.33;71.18
69464;DHT22;56665;41.106;16.688;2023-04-08T01:52:27;9.36;70.98
69464;DHT22;56665;41.106;16.688;2023-04-08T01:55:32;9.35;71.28
69464;DHT22;56665;41.106;16.688;2023-04-08T01:58:41;9.29;71.13
69464;DHT22;56665;41.106;16.688;2023-04-08T02:01:47;9.29;71.20
69464;DHT22;56665;41.106;16.688;2023-04-08T02:04:53;9.32;71.22
69464;DHT22;56665;41.106;16.688;2023-04-08T02:07:57;9.26;71.40
69464;DHT22;56665;41.106;16.688;2023-04-08T02:11:02;9.16;71.45
69464;DHT22;56665;41.106;16.688;2023-04-08T02:14:06;9.18;71.79
69464;DHT22;56665;41.106;16.688;2023-04-08T02:17:15;9.12;71.50
69464;DHT22;56665;41.106;16.688;2023-04-08T02:20:37;9.14;71.84
69464;DHT22;56665;41.106;16.688;2023-04-08T02:23:47;9.06;71.67
69464;DHT22;56665;41.106;16.688;2023-04-08T02:26:52;9.08;72.00
69464;DHT22;56665;41.106;16.688;2023-04-08T02:29:58;9.02;71.87
69464;DHT22;56665;41.106;16.688;2023-04-08T02:33:05;9.04;71.97
69464;DHT22;56665;41.106;16.688;2023-04-08T02:36:13;9.02;72.23
69464;DHT22;56665;41.106;16.688;2023-04-08T02:39:18;9.04;72.03
69464;DHT22;56665;41.106;16.688;2023-04-08T02:42:28;9.05;72.13
69464;DHT22;56665;41.106;16.688;2023-04-08T02:45:36;9.02;71.95
69464;DHT22;56665;41.106;16.688;2023-04-08T02:48:40;9.01;72.03
69464;DHT22;56665;41.106;16.688;2023-04-08T02:51:46;8.99;72.25
69464;DHT22;56665;41.106;16.688;2023-04-08T02:54:50;8.98;71.80
69464;DHT22;56665;41.106;16.688;2023-04-08T02:57:54;8.99;71.93
69464;DHT22;56665;41.106;16.688;2023-04-08T03:00:58;8.99;72.14
69464;DHT22;56665;41.106;16.688;2023-04-08T03:04:02;8.99;72.02
69464;DHT22;56665;41.106;16.688;2023-04-08T03:07:07;8.92;72.03
69464;DHT22;56665;41.106;16.688;2023-04-08T03:10:12;8.88;72.44
69464;DHT22;56665;41.106;16.688;2023-04-08T03:13:16;8.85;72.48
69464;DHT22;56665;41.106;16.688;2023-04-08T03:16:21;8.88;72.78
69464;DHT22;56665;41.106;16.688;2023-04-08T03:19:25;8.87;72.42
69464;DHT22;56665;41.106;16.688;2023-04-08T03:22:29;8.83;72.41
69464;DHT22;56665;41.106;16.688;2023-04-08T03:25:33;8.85;72.55
69464;DHT22;56665;41.106;16.688;2023-04-08T03:28:38;8.87;72.56
69464;DHT22;56665;41.106;16.688;2023-04-08T03:31:42;8.85;72.52
69464;DHT22;56665;41.106;16.688;2023-04-08T03:34:48;8.87;72.55
69464;DHT22;56665;41.106;16.688;2023-04-08T03:37:56;8.84;72.25
69464;DHT22;56665;41.106;16.688;2023-04-08T03:41:01;8.84;72.14
69464;DHT22;56665;41.106;16.688;2023-04-08T03:44:04;8.81;72.44
69464;DHT22;56665;41.106;16.688;2023-04-08T03:47:08;8.78;72.43
69464;DHT22;56665;41.106;16.688;2023-04-08T03:50:15;8.78;72.54
69464;DHT22;56665;41.106;16.688;2023-04-08T03:53:19;8.83;72.50
69464;DHT22;56665;41.106;16.688;2023-04-08T03:56:23;8.87;72.30
69464;DHT22;56665;41.106;16.688;2023-04-08T03:59:28;8.88;72.27
69464;DHT22;56665;41.106;16.688;2023-04-08T04:02:31;8.92;72.24
69464;DHT22;56665;41.106;16.688;2023-04-08T04:05:35;8.95;71.92
69464;DHT22;56665;41.106;16.688;2023-04-08T04:08:39;8.92;72.03
69464;DHT22;56665;41.106;16.688;2023-04-08T04:11:43;8.89;71.89
69464;DHT22;56665;41.106;16.688;2023-04-08T04:14:47;8.88;72.14
69464;DHT22;56665;41.106;16.688;2023-04-08T04:17:50;8.94;71.68
69464;DHT22;56665;41.106;16.688;2023-04-08T04:20:54;8.95;72.05
69464;DHT22;56665;41.106;16.688;2023-04-08T04:23:58;8.94;71.87
69464;DHT22;56665;41.106;16.688;2023-04-08T04:27:02;8.98;72.03
69464;DHT22;56665;41.106;16.688;2023-04-08T04:30:06;9.01;71.74
69464;DHT22;56665;41.106;16.688;2023-04-08T04:33:12;9.09;71.65
69464;DHT22;56665;41.106;16.688;2023-04-08T04:36:16;9.08;71.15
69464;DHT22;56665;41.106;16.688;2023-04-08T04:39:20;9.14;71.22
69464;DHT22;56665;41.106;16.688;2023-04-08T04:42:24;9.12;71.28
69464;DHT22;56665;41.106;16.688;2023-04-08T04:45:29;9.12;71.37
69464;DHT22;56665;41.106;16.688;2023-04-08T04:48:35;9.16;71.58
69464;DHT22;56665;41.106;16.688;2023-04-08T04:51:39;9.16;71.56
69464;DHT22;56665;41.106;16.688;2023-04-08T04:54:42;9.25;71.84
69464;DHT22;56665;41.106;16.688;2023-04-08T04:57:47;9.28;71.63
69464;DHT22;56665;41.106;16.688;2023-04-08T05:00:52;9.35;71.15
69464;DHT22;56665;41.106;16.688;2023-04-08T05:03:56;9.43;70.13
69464;DHT22;56665;41.106;16.688;2023-04-08T05:07:00;9.49;70.80
69464;DHT22;56665;41.106;16.688;2023-04-08T05:10:04;9.58;70.44
69464;DHT22;56665;41.106;16.688;2023-04-08T05:13:09;9.67;69.99
69464;DHT22;56665;41.106;16.688;2023-04-08T05:16:14;9.86;70.06
69464;DHT22;56665;41.106;16.688;2023-04-08T05:19:18;10.04;69.04
69464;DHT22;56665;41.106;16.688;2023-04-08T05:22:22;10.14;68.89
69464;DHT22;56665;41.106;16.688;2023-04-08T05:25:26;10.28;68.19
69464;DHT22;56665;41.106;16.688;2023-04-08T05:28:31;10.40;67.91
69464;DHT22;56665;41.106;16.688;2023-04-08T05:31:35;10.59;67.39
69464;DHT22;56665;41.106;16.688;2023-04-08T05:34:39;10.77;67.05
69464;DHT22;56665;41.106;16.688;2023-04-08T05:37:43;11.00;66.63
69464;DHT22;56665;41.106;16.688;2023-04-08T05:40:47;11.22;65.79
69464;DHT22;56665;41.106;16.688;2023-04-08T05:43:50;11.44;65.29
69464;DHT22;56665;41.106;16.688;2023-04-08T05:46:54;11.73;64.69
69464;DHT22;56665;41.106;16.688;2023-04-08T05:50:00;12.03;63.77
69464;DHT22;56665;41.106;16.688;2023-04-08T05:53:04;12.31;63.15
69464;DHT22;56665;41.106;16.688;2023-04-08T05:56:07;12.62;62.47
69464;DHT22;56665;41.106;16.688;2023-04-08T05:59:12;12.91;61.60
69464;DHT22;56665;41.106;16.688;2023-04-08T06:02:15;12.89;61.98
69464;DHT22;56665;41.106;16.688;2023-04-08T06:05:20;12.83;62.05
69464;DHT22;56665;41.106;16.688;2023-04-08T06:08:25;12.82;62.05
69464;DHT22;56665;41.106;16.688;2023-04-08T06:11:29;13.17;61.21
69464;DHT22;56665;41.106;16.688;2023-04-08T06:14:33;13.65;59.94
69464;DHT22;56665;41.106;16.688;2023-04-08T06:17:37;14.09;58.88
69464;DHT22;56665;41.106;16.688;2023-04-08T06:20:41;14.46;58.32
69464;DHT22;56665;41.106;16.688;2023-04-08T06:23:45;14.91;57.10
69464;DHT22;56665;41.106;16.688;2023-04-08T06:26:49;15.29;56.06
69464;DHT22;56665;41.106;16.688;2023-04-08T06:29:56;15.49;55.66
69464;DHT22;56665;41.106;16.688;2023-04-08T06:33:00;15.29;55.79
69464;DHT22;56665;41.106;16.688;2023-04-08T06:36:04;15.09;56.67
69464;DHT22;56665;41.106;16.688;2023-04-08T06:39:10;15.18;55.98
69464;DHT22;56665;41.106;16.688;2023-04-08T06:42:14;15.60;55.24
69464;DHT22;56665;41.106;16.688;2023-04-08T06:45:33;16.28;53.68
69464;DHT22;56665;41.106;16.688;2023-04-08T06:48:37;17.13;51.56
69464;DHT22;56665;41.106;16.688;2023-04-08T06:51:41;17.95;49.69
69464;DHT22;56665;41.106;16.688;2023-04-08T06:54:45;18.79;46.36
69464;DHT22;56665;41.106;16.688;2023-04-08T06:57:48;18.60;44.09
69464;DHT22;56665;41.106;16.688;2023-04-08T07:00:53;18.50;45.17
69464;DHT22;56665;41.106;16.688;2023-04-08T07:04:00;18.37;44.70
69464;DHT22;56665;41.106;16.688;2023-04-08T07:07:04;18.68;45.08
69464;DHT22;56665;41.106;16.688;2023-04-08T07:10:09;19.43;44.01
69464;DHT22;56665;41.106;16.688;2023-04-08T07:13:12;19.08;44.69
69464;DHT22;56665;41.106;16.688;2023-04-08T07:16:16;19.63;43.75
69464;DHT22;56665;41.106;16.688;2023-04-08T07:19:20;20.30;42.85
69464;DHT22;56665;41.106;16.688;2023-04-08T07:22:25;19.43;42.25
69464;DHT22;56665;41.106;16.688;2023-04-08T07:25:29;19.63;41.76
69464;DHT22;56665;41.106;16.688;2023-04-08T07:28:32;18.89;43.03
69464;DHT22;56665;41.106;16.688;2023-04-08T07:31:36;19.33;42.87
69464;DHT22;56665;41.106;16.688;2023-04-08T07:34:40;18.78;42.48
69464;DHT22;56665;41.106;16.688;2023-04-08T07:37:44;18.79;43.00
69464;DHT22;56665;41.106;16.688;2023-04-08T07:40:47;18.30;43.52
69464;DHT22;56665;41.106;16.688;2023-04-08T07:43:51;18.18;43.34
69464;DHT22;56665;41.106;16.688;2023-04-08T07:46:55;18.63;44.98
69464;DHT22;56665;41.106;16.688;2023-04-08T07:49:59;18.41;43.38
69464;DHT22;56665;41.106;16.688;2023-04-08T07:53:05;18.96;43.59
69464;DHT22;56665;41.106;16.688;2023-04-08T07:56:11;19.87;41.67
69464;DHT22;56665;41.106;16.688;2023-04-08T07:59:15;20.33;40.99
69464;DHT22;56665;41.106;16.688;2023-04-08T08:02:19;20.39;39.52
69464;DHT22;56665;41.106;16.688;2023-04-08T08:05:23;20.59;38.76
69464;DHT22;56665;41.106;16.688;2023-04-08T08:08:27;20.79;38.91
69464;DHT22;56665;41.106;16.688;2023-04-08T08:11:31;21.17;39.11
69464;DHT22;56665;41.106;16.688;2023-04-08T08:14:37;21.65;38.21
69464;DHT22;56665;41.106;16.688;2023-04-08T08:17:41;21.49;40.05
69464;DHT22;56665;41.106;16.688;2023-04-08T08:20:44;21.66;39.76
69464;DHT22;56665;41.106;16.688;2023-04-08T08:23:51;22.04;38.41
69464;DHT22;56665;41.106;16.688;2023-04-08T08:26:57;22.00;37.06
69464;DHT22;56665;41.106;16.688;2023-04-08T08:30:02;21.93;38.37
69464;DHT22;56665;41.106;16.688;2023-04-08T08:33:07;22.67;36.22
69464;DHT22;56665;41.106;16.688;2023-04-08T08:36:12;22.82;36.05
69464;DHT22;56665;41.106;16.688;2023-04-08T08:39:16;23.42;35.07
69464;DHT22;56665;41.106;16.688;2023-04-08T08:42:20;22.21;35.71
69464;DHT22;56665;41.106;16.688;2023-04-08T08:45:26;24.59;33.66
69464;DHT22;56665;41.106;16.688;2023-04-08T08:48:30;25.94;30.75
69464;DHT22;56665;41.106;16.688;2023-04-08T08:51:35;25.82;30.36
69464;DHT22;56665;41.106;16.688;2023-04-08T08:54:40;26.72;29.55
69464;DHT22;56665;41.106;16.688;2023-04-08T08:57:44;27.69;29.50
69464;DHT22;56665;41.106;16.688;2023-04-08T09:00:48;27.64;29.57
69464;DHT22;56665;41.106;16.688;2023-04-08T09:04:06;27.60;28.70
69464;DHT22;56665;41.106;16.688;2023-04-08T09:07:11;27.32;30.15
69464;DHT22;56665;41.106;16.688;2023-04-08T09:10:27;26.14;32.29
69464;DHT22;56665;41.106;16.688;2023-04-08T09:13:34;25.21;31.97
69464;DHT22;56665;41.106;16.688;2023-04-08T09:16:41;24.96;32.48
69464;DHT22;56665;41.106;16.688;2023-04-08T09:20:08;24.53;33.74
69464;DHT22;56665;41.106;16.688;2023-04-08T09:23:14;23.40;36.16
69464;DHT22;56665;41.106;16.688;2023-04-08T09:26:22;22.41;39.20
69464;DHT22;56665;41.106;16.688;2023-04-08T09:29:26;22.81;37.14
69464;DHT22;56665;41.106;16.688;2023-04-08T09:32:49;21.82;38.79
69464;DHT22;56665;41.106;16.688;2023-04-08T09:35:53;20.80;40.59
69464;DHT22;56665;41.106;16.688;2023-04-08T09:38:57;20.45;42.07
69464;DHT22;56665;41.106;16.688;2023-04-08T09:42:05;20.32;42.72
69464;DHT22;56665;41.106;16.688;2023-04-08T09:45:15;20.52;42.83
69464;DHT22;56665;41.106;16.688;2023-04-08T09:48:26;20.90;42.03
69464;DHT22;56665;41.106;16.688;2023-04-08T09:55:08;20.81;43.39
69464;DHT22;56665;41.106;16.688;2023-04-08T09:58:15;21.48;43.28
69464;DHT22;56665;41.106;16.688;2023-04-08T10:01:27;21.08;44.50
69464;DHT22;56665;41.106;16.688;2023-04-08T10:04:34;19.82;47.99
69464;DHT22;56665;41.106;16.688;2023-04-08T10:07:41;18.96;49.69
69464;DHT22;56665;41.106;16.688;2023-04-08T10:10:45;18.46;50.62
69464;DHT22;56665;41.106;16.688;2023-04-08T10:13:49;18.09;51.17
69464;DHT22;56665;41.106;16.688;2023-04-08T10:17:32;17.83;51.24
69464;DHT22;56665;41.106;16.688;2023-04-08T10:23:56;20.45;45.08
69464;DHT22;56665;41.106;16.688;2023-04-08T10:27:01;20.33;44.37
69464;DHT22;56665;41.106;16.688;2023-04-08T10:36:33;19.46;45.56
69464;DHT22;56665;41.106;16.688;2023-04-08T10:39:37;19.37;46.41
69464;DHT22;56665;41.106;16.688;2023-04-08T10:42:41;18.50;46.68
69464;DHT22;56665;41.106;16.688;2023-04-08T10:45:45;18.31;47.40
69464;DHT22;56665;41.106;16.688;2023-04-08T10:49:01;18.27;47.61
69464;DHT22;56665;41.106;16.688;2023-04-08T10:52:07;18.24;46.68
69464;DHT22;56665;41.106;16.688;2023-04-08T10:55:11;17.89;47.83
69464;DHT22;56665;41.106;16.688;2023-04-08T10:58:15;18.46;47.01
69464;DHT22;56665;41.106;16.688;2023-04-08T11:01:19;18.85;47.23
69464;DHT22;56665;41.106;16.688;2023-04-08T11:04:24;17.99;49.32
69464;DHT22;56665;41.106;16.688;2023-04-08T11:07:28;17.45;51.51
69464;DHT22;56665;41.106;16.688;2023-04-08T11:10:37;17.42;51.26
69464;DHT22;56665;41.106;16.688;2023-04-08T11:13:44;17.35;50.89
69464;DHT22;56665;41.106;16.688;2023-04-08T11:16:48;17.13;52.28
69464;DHT22;56665;41.106;16.688;2023-04-08T11:19:53;16.99;52.87
69464;DHT22;56665;41.106;16.688;2023-04-08T11:22:57;17.42;52.11
69464;DHT22;56665;41.106;16.688;2023-04-08T11:26:01;18.24;50.52
69464;DHT22;56665;41.106;16.688;2023-04-08T11:29:05;19.47;48.10
69464;DHT22;56665;41.106;16.688;2023-04-08T11:32:09;19.02;49.93
69464;DHT22;56665;41.106;16.688;2023-04-08T11:35:15;19.63;49.07
69464;DHT22;56665;41.106;16.688;2023-04-08T11:38:23;20.05;47.41
69464;DHT22;56665;41.106;16.688;2023-04-08T11:41:35;18.94;50.30
69464;DHT22;56665;41.106;16.688;2023-04-08T11:44:40;19.30;50.48
69464;DHT22;56665;41.106;16.688;2023-04-08T11:47:45;18.88;50.66
69464;DHT22;56665;41.106;16.688;2023-04-08T11:51:04;17.93;51.62
69464;DHT22;56665;41.106;16.688;2023-04-08T11:54:33;17.47;52.77
69464;DHT22;56665;41.106;16.688;2023-04-08T11:57:38;17.47;52.87
69464;DHT22;56665;41.106;16.688;2023-04-08T12:00:43;18.60;50.58
69464;DHT22;56665;41.106;16.688;2023-04-08T12:03:58;19.09;49.95
69464;DHT22;56665;41.106;16.688;2023-04-08T12:07:03;19.32;49.14
69464;DHT22;56665;41.106;16.688;2023-04-08T12:10:07;19.36;49.78
69464;DHT22;56665;41.106;16.688;2023-04-08T12:13:12;19.02;51.71
69464;DHT22;56665;41.106;16.688;2023-04-08T12:16:16;19.03;52.03
69464;DHT22;56665;41.106;16.688;2023-04-08T12:19:19;18.95;51.87
69464;DHT22;56665;41.106;16.688;2023-04-08T12:22:24;19.35;51.74
69464;DHT22;56665;41.106;16.688;2023-04-08T12:25:29;18.65;53.57
69464;DHT22;56665;41.106;16.688;2023-04-08T12:28:35;18.89;52.97
69464;DHT22;56665;41.106;16.688;2023-04-08T12:31:39;18.34;54.67
69464;DHT22;56665;41.106;16.688;2023-04-08T12:34:44;18.24;54.92
69464;DHT22;56665;41.106;16.688;2023-04-08T12:37:48;18.81;54.32
69464;DHT22;56665;41.106;16.688;2023-04-08T12:40:54;19.54;52.07
69464;DHT22;56665;41.106;16.688;2023-04-08T12:43:57;19.51;52.70
69464;DHT22;56665;41.106;16.688;2023-04-08T12:47:04;19.63;52.92
69464;DHT22;56665;41.106;16.688;2023-04-08T12:50:08;18.48;55.56
69464;DHT22;56665;41.106;16.688;2023-04-08T12:53:13;18.77;55.27
69464;DHT22;56665;41.106;16.688;2023-04-08T12:56:19;18.71;55.52
69464;DHT22;56665;41.106;16.688;2023-04-08T12:59:24;18.54;56.30
69464;DHT22;56665;41.106;16.688;2023-04-08T13:02:27;18.40;57.53
69464;DHT22;56665;41.106;16.688;2023-04-08T13:05:31;18.30;49.92
69464;DHT22;56665;41.106;16.688;2023-04-08T13:08:35;18.51;53.57
69464;DHT22;56665;41.106;16.688;2023-04-08T13:11:39;18.46;55.58
69464;DHT22;56665;41.106;16.688;2023-04-08T13:14:44;19.08;54.32
69464;DHT22;56665;41.106;16.688;2023-04-08T13:17:47;19.46;51.70
69464;DHT22;56665;41.106;16.688;2023-04-08T13:20:52;19.46;49.72
69464;DHT22;56665;41.106;16.688;2023-04-08T13:23:57;19.18;51.91
69464;DHT22;56665;41.106;16.688;2023-04-08T13:27:02;19.02;51.95
69464;DHT22;56665;41.106;16.688;2023-04-08T13:30:06;19.09;51.94
69464;DHT22;56665;41.106;16.688;2023-04-08T13:33:12;18.54;52.29
69464;DHT22;56665;41.106;16.688;2023-04-08T13:36:17;18.88;51.48
69464;DHT22;56665;41.106;16.688;2023-04-08T13:39:21;19.30;50.66
69464;DHT22;56665;41.106;16.688;2023-04-08T13:42:25;19.66;48.07
69464;DHT22;56665;41.106;16.688;2023-04-08T13:45:29;19.85;46.52
69464;DHT22;56665;41.106;16.688;2023-04-08T13:48:33;19.92;42.98
69464;DHT22;56665;41.106;16.688;2023-04-08T13:51:37;19.94;41.05
69464;DHT22;56665;41.106;16.688;2023-04-08T13:54:43;20.05;39.82
69464;DHT22;56665;41.106;16.688;2023-04-08T13:57:47;20.04;38.45
69464;DHT22;56665;41.106;16.688;2023-04-08T14:00:51;19.85;38.70
69464;DHT22;56665;41.106;16.688;2023-04-08T14:03:55;19.85;38.43
69464;DHT22;56665;41.106;16.688;2023-04-08T14:06:59;19.82;38.44
69464;DHT22;56665;41.106;16.688;2023-04-08T14:10:03;19.85;38.44
69464;DHT22;56665;41.106;16.688;2023-04-08T14:13:07;19.82;38.29
69464;DHT22;56665;41.106;16.688;2023-04-08T14:16:11;19.68;38.07
69464;DHT22;56665;41.106;16.688;2023-04-08T14:19:15;19.45;38.60
69464;DHT22;56665;41.106;16.688;2023-04-08T14:22:20;19.32;38.60
69464;DHT22;56665;41.106;16.688;2023-04-08T14:25:24;19.37;39.08
69464;DHT22;56665;41.106;16.688;2023-04-08T14:28:28;19.25;39.40
69464;DHT22;56665;41.106;16.688;2023-04-08T14:31:33;19.22;40.05
69464;DHT22;56665;41.106;16.688;2023-04-08T14:34:37;19.26;39.81
69464;DHT22;56665;41.106;16.688;2023-04-08T14:37:40;19.25;40.07
69464;DHT22;56665;41.106;16.688;2023-04-08T14:40:45;19.35;40.03
69464;DHT22;56665;41.106;16.688;2023-04-08T14:43:49;19.25;40.06
69464;DHT22;56665;41.106;16.688;2023-04-08T14:46:52;19.00;39.66
69464;DHT22;56665;41.106;16.688;2023-04-08T14:49:59;18.75;40.24
69464;DHT22;56665;41.106;16.688;2023-04-08T14:53:03;18.65;40.70
69464;DHT22;56665;41.106;16.688;2023-04-08T14:56:08;18.72;40.51
69464;DHT22;56665;41.106;16.688;2023-04-08T14:59:12;18.75;40.28
69464;DHT22;56665;41.106;16.688;2023-04-08T15:02:16;18.74;40.88
69464;DHT22;56665;41.106;16.688;2023-04-08T15:05:20;18.56;41.51
69464;DHT22;56665;41.106;16.688;2023-04-08T15:08:23;18.24;41.73
69464;DHT22;56665;41.106;16.688;2023-04-08T15:11:27;18.07;42.62
69464;DHT22;56665;41.106;16.688;2023-04-08T15:14:31;17.79;45.08
69464;DHT22;56665;41.106;16.688;2023-04-08T15:17:35;17.28;49.79
69464;DHT22;56665;41.106;16.688;2023-04-08T15:20:40;16.59;53.16
69464;DHT22;56665;41.106;16.688;2023-04-08T15:23:45;16.27;54.89
69464;DHT22;56665;41.106;16.688;2023-04-08T15:26:50;16.06;55.96
69464;DHT22;56665;41.106;16.688;2023-04-08T15:29:54;16.10;58.37
69464;DHT22;56665;41.106;16.688;2023-04-08T15:32:58;16.07;56.82
69464;DHT22;56665;41.106;16.688;2023-04-08T15:36:02;15.83;57.04
69464;DHT22;56665;41.106;16.688;2023-04-08T15:39:06;15.78;58.36
69464;DHT22;56665;41.106;16.688;2023-04-08T15:42:11;15.81;59.22
69464;DHT22;56665;41.106;16.688;2023-04-08T15:45:15;15.74;59.40
69464;DHT22;56665;41.106;16.688;2023-04-08T15:48:19;15.73;59.78
69464;DHT22;56665;41.106;16.688;2023-04-08T15:51:23;15.62;60.29
69464;DHT22;56665;41.106;16.688;2023-04-08T15:54:30;15.47;60.47
69464;DHT22;56665;41.106;16.688;2023-04-08T15:57:34;15.46;61.10
69464;DHT22;56665;41.106;16.688;2023-04-08T16:00:39;15.35;60.88
69464;DHT22;56665;41.106;16.688;2023-04-08T16:03:43;15.16;61.15
69464;DHT22;56665;41.106;16.688;2023-04-08T16:06:47;15.09;61.79
69464;DHT22;56665;41.106;16.688;2023-04-08T16:09:51;15.05;62.30
69464;DHT22;56665;41.106;16.688;2023-04-08T16:12:55;14.91;61.48
69464;DHT22;56665;41.106;16.688;2023-04-08T16:16:02;14.76;61.90
69464;DHT22;56665;41.106;16.688;2023-04-08T16:19:06;14.73;62.24
69464;DHT22;56665;41.106;16.688;2023-04-08T16:22:11;14.68;62.70
69464;DHT22;56665;41.106;16.688;2023-04-08T16:25:16;14.64;63.25
69464;DHT22;56665;41.106;16.688;2023-04-08T16:28:21;14.50;64.07
69464;DHT22;56665;41.106;16.688;2023-04-08T16:31:27;14.46;64.40
69464;DHT22;56665;41.106;16.688;2023-04-08T16:34:31;14.43;64.56
69464;DHT22;56665;41.106;16.688;2023-04-08T16:37:35;14.46;64.49
69464;DHT22;56665;41.106;16.688;2023-04-08T16:40:39;14.52;65.22
69464;DHT22;56665;41.106;16.688;2023-04-08T16:43:45;14.47;64.86
69464;DHT22;56665;41.106;16.688;2023-04-08T16:46:50;14.39;64.66
69464;DHT22;56665;41.106;16.688;2023-04-08T16:49:54;14.30;64.07
69464;DHT22;56665;41.106;16.688;2023-04-08T16:52:58;14.25;64.06
69464;DHT22;56665;41.106;16.688;2023-04-08T16:56:03;14.25;65.11
69464;DHT22;56665;41.106;16.688;2023-04-08T16:59:08;14.25;64.99
69464;DHT22;56665;41.106;16.688;2023-04-08T17:02:13;14.25;64.58
69464;DHT22;56665;41.106;16.688;2023-04-08T17:05:17;14.16;64.36
69464;DHT22;56665;41.106;16.688;2023-04-08T17:08:20;14.09;65.05
69464;DHT22;56665;41.106;16.688;2023-04-08T17:11:26;14.08;64.43
69464;DHT22;56665;41.106;16.688;2023-04-08T17:14:30;14.10;64.96
69464;DHT22;56665;41.106;16.688;2023-04-08T17:17:34;14.04;64.95
69464;DHT22;56665;41.106;16.688;2023-04-08T17:20:38;14.09;64.92
69464;DHT22;56665;41.106;16.688;2023-04-08T17:23:43;14.08;64.53
69464;DHT22;56665;41.106;16.688;2023-04-08T17:26:47;14.09;65.15
69464;DHT22;56665;41.106;16.688;2023-04-08T17:29:51;14.05;64.93
69464;DHT22;56665;41.106;16.688;2023-04-08T17:33:00;14.04;64.89
69464;DHT22;56665;41.106;16.688;2023-04-08T17:36:04;14.02;65.12
69464;DHT22;56665;41.106;16.688;2023-04-08T17:39:09;13.96;65.43
69464;DHT22;56665;41.106;16.688;2023-04-08T17:42:13;13.96;65.87
69464;DHT22;56665;41.106;16.688;2023-04-08T17:45:18;13.95;66.35
69464;DHT22;56665;41.106;16.688;2023-04-08T17:48:22;13.87;66.51
69464;DHT22;56665;41.106;16.688;2023-04-08T17:51:27;13.95;67.10
69464;DHT22;56665;41.106;16.688;2023-04-08T17:54:32;13.94;67.18
69464;DHT22;56665;41.106;16.688;2023-04-08T17:57:37;13.94;67.54
69464;DHT22;56665;41.106;16.688;2023-04-08T18:00:41;13.91;68.49
69464;DHT22;56665;41.106;16.688;2023-04-08T18:03:46;13.88;70.23
69464;DHT22;56665;41.106;16.688;2023-04-08T18:06:50;13.85;71.88
69464;DHT22;56665;41.106;16.688;2023-04-08T18:09:54;13.75;71.70
69464;DHT22;56665;41.106;16.688;2023-04-08T18:12:58;13.75;72.35
69464;DHT22;56665;41.106;16.688;2023-04-08T18:16:03;13.67;71.92
69464;DHT22;56665;41.106;16.688;2023-04-08T18:19:07;13.68;71.65
69464;DHT22;56665;41.106;16.688;2023-04-08T18:22:12;13.62;71.05
69464;DHT22;56665;41.106;16.688;2023-04-08T18:25:16;13.62;70.95
69464;DHT22;56665;41.106;16.688;2023-04-08T18:28:22;13.62;71.99
69464;DHT22;56665;41.106;16.688;2023-04-08T18:31:27;13.65;71.90
69464;DHT22;56665;41.106;16.688;2023-04-08T18:34:31;13.54;72.68
69464;DHT22;56665;41.106;16.688;2023-04-08T18:37:36;13.51;73.07
69464;DHT22;56665;41.106;16.688;2023-04-08T18:40:40;13.44;73.18
69464;DHT22;56665;41.106;16.688;2023-04-08T18:43:45;13.31;73.39
69464;DHT22;56665;41.106;16.688;2023-04-08T18:46:49;13.26;73.27
69464;DHT22;56665;41.106;16.688;2023-04-08T18:49:57;13.16;71.50
69464;DHT22;56665;41.106;16.688;2023-04-08T18:53:01;13.15;72.00
69464;DHT22;56665;41.106;16.688;2023-04-08T18:56:13;13.07;72.42
69464;DHT22;56665;41.106;16.688;2023-04-08T18:59:24;12.95;72.83
69464;DHT22;56665;41.106;16.688;2023-04-08T19:02:31;12.92;73.72
69464;DHT22;56665;41.106;16.688;2023-04-08T19:05:36;12.91;73.32
69464;DHT22;56665;41.106;16.688;2023-04-08T19:08:41;12.92;74.00
69464;DHT22;56665;41.106;16.688;2023-04-08T19:11:46;12.86;74.28
69464;DHT22;56665;41.106;16.688;2023-04-08T19:14:54;12.88;73.93
69464;DHT22;56665;41.106;16.688;2023-04-08T19:18:02;12.85;74.47
69464;DHT22;56665;41.106;16.688;2023-04-08T19:21:06;12.76;73.98
69464;DHT22;56665;41.106;16.688;2023-04-08T19:24:11;12.72;74.20
69464;DHT22;56665;41.106;16.688;2023-04-08T19:27:16;12.71;74.96
69464;DHT22;56665;41.106;16.688;2023-04-08T19:30:21;12.61;74.32
69464;DHT22;56665;41.106;16.688;2023-04-08T19:33:26;12.64;75.19